Terminal Aerodrome Forecast
Issued by NWS

Home | Current Version | Previous Version | Text Only | Print | Product List | Glossary On
Versions: 1 2 3 4 5 6 7 8 9 10 11 12 13 14 15 16 17 18 19 20 21
000
FTUS43 KDLH 192100 AAB
TAFHIB
TAF AMD
KHIB 192155Z 1922/2018 17005KT 6SM -SN BR OVC012
     FM200200 17004KT 4SM -SN BR OVC007
     FM200500 18004KT 3SM -SN BR OVC004
     FM201600 18007KT 3SM -SN BR OVC007=

USA.gov is the U.S. government's official web portal to all federal, state and local government web resources and services.